sensor_id;sensor_type;location;lat;lon;timestamp;P1;durP1;ratioP1;P2;durP2;ratioP2
11222;SDS011;5668;52.012;8.724;2023-04-03T00:01:10;4.73;;;2.70;;
11222;SDS011;5668;52.012;8.724;2023-04-03T00:03:38;4.83;;;1.67;;
11222;SDS011;5668;52.012;8.724;2023-04-03T00:06:06;2.53;;;1.90;;
11222;SDS011;5668;52.012;8.724;2023-04-03T00:08:37;2.37;;;1.57;;
11222;SDS011;5668;52.012;8.724;2023-04-03T00:11:05;5.00;;;1.83;;
11222;SDS011;5668;52.012;8.724;2023-04-03T00:13:33;3.10;;;1.50;;
11222;SDS011;5668;52.012;8.724;2023-04-03T00:16:01;4.40;;;1.70;;
11222;SDS011;5668;52.012;8.724;2023-04-03T00:18:29;3.60;;;1.67;;
11222;SDS011;5668;52.012;8.724;2023-04-03T00:20:56;2.77;;;1.70;;
11222;SDS011;5668;52.012;8.724;2023-04-03T00:23:24;2.90;;;1.80;;
11222;SDS011;5668;52.012;8.724;2023-04-03T00:25:53;2.07;;;1.30;;
11222;SDS011;5668;52.012;8.724;2023-04-03T00:28:20;5.87;;;1.77;;
11222;SDS011;5668;52.012;8.724;2023-04-03T00:30:48;2.83;;;1.70;;
11222;SDS011;5668;52.012;8.724;2023-04-03T00:33:16;4.67;;;1.70;;
11222;SDS011;5668;52.012;8.724;2023-04-03T00:35:46;3.00;;;1.57;;
11222;SDS011;5668;52.012;8.724;2023-04-03T00:38:14;3.17;;;1.80;;
11222;SDS011;5668;52.012;8.724;2023-04-03T00:40:42;3.40;;;1.50;;
11222;SDS011;5668;52.012;8.724;2023-04-03T00:43:13;4.77;;;1.97;;
11222;SDS011;5668;52.012;8.724;2023-04-03T00:45:44;2.23;;;1.60;;
11222;SDS011;5668;52.012;8.724;2023-04-03T00:48:13;3.70;;;1.60;;
11222;SDS011;5668;52.012;8.724;2023-04-03T00:50:44;3.77;;;1.63;;
11222;SDS011;5668;52.012;8.724;2023-04-03T00:53:13;2.60;;;1.70;;
11222;SDS011;5668;52.012;8.724;2023-04-03T00:55:44;3.40;;;1.80;;
11222;SDS011;5668;52.012;8.724;2023-04-03T00:58:14;2.77;;;1.50;;
11222;SDS011;5668;52.012;8.724;2023-04-03T01:00:46;3.00;;;1.40;;
11222;SDS011;5668;52.012;8.724;2023-04-03T01:03:21;3.57;;;1.53;;
11222;SDS011;5668;52.012;8.724;2023-04-03T01:05:52;4.17;;;1.80;;
11222;SDS011;5668;52.012;8.724;2023-04-03T01:08:19;2.57;;;1.60;;
11222;SDS011;5668;52.012;8.724;2023-04-03T01:10:47;3.37;;;1.57;;
11222;SDS011;5668;52.012;8.724;2023-04-03T01:13:22;2.47;;;1.57;;
11222;SDS011;5668;52.012;8.724;2023-04-03T01:15:51;3.97;;;1.50;;
11222;SDS011;5668;52.012;8.724;2023-04-03T01:18:19;4.50;;;1.63;;
11222;SDS011;5668;52.012;8.724;2023-04-03T01:20:55;3.57;;;1.70;;
11222;SDS011;5668;52.012;8.724;2023-04-03T01:23:52;3.40;;;1.60;;
11222;SDS011;5668;52.012;8.724;2023-04-03T01:26:25;1.90;;;1.60;;
11222;SDS011;5668;52.012;8.724;2023-04-03T01:28:55;1.93;;;1.40;;
11222;SDS011;5668;52.012;8.724;2023-04-03T01:31:27;3.33;;;1.53;;
11222;SDS011;5668;52.012;8.724;2023-04-03T01:33:59;3.20;;;1.60;;
11222;SDS011;5668;52.012;8.724;2023-04-03T01:36:28;2.60;;;1.70;;
11222;SDS011;5668;52.012;8.724;2023-04-03T01:38:57;1.70;;;1.33;;
11222;SDS011;5668;52.012;8.724;2023-04-03T01:41:25;3.97;;;1.80;;
11222;SDS011;5668;52.012;8.724;2023-04-03T01:43:53;2.70;;;1.30;;
11222;SDS011;5668;52.012;8.724;2023-04-03T01:46:20;2.93;;;1.70;;
11222;SDS011;5668;52.012;8.724;2023-04-03T01:48:48;1.97;;;1.30;;
11222;SDS011;5668;52.012;8.724;2023-04-03T01:51:17;2.10;;;1.60;;
11222;SDS011;5668;52.012;8.724;2023-04-03T01:53:44;3.07;;;1.63;;
11222;SDS011;5668;52.012;8.724;2023-04-03T01:56:11;2.67;;;1.63;;
11222;SDS011;5668;52.012;8.724;2023-04-03T01:58:38;2.93;;;1.53;;
11222;SDS011;5668;52.012;8.724;2023-04-03T02:01:06;4.47;;;1.53;;
11222;SDS011;5668;52.012;8.724;2023-04-03T02:03:33;2.93;;;1.67;;
11222;SDS011;5668;52.012;8.724;2023-04-03T02:06:00;2.27;;;1.90;;
11222;SDS011;5668;52.012;8.724;2023-04-03T02:08:29;3.17;;;1.80;;
11222;SDS011;5668;52.012;8.724;2023-04-03T02:10:56;3.57;;;1.60;;
11222;SDS011;5668;52.012;8.724;2023-04-03T02:13:23;2.87;;;1.60;;
11222;SDS011;5668;52.012;8.724;2023-04-03T02:15:51;3.87;;;1.80;;
11222;SDS011;5668;52.012;8.724;2023-04-03T02:18:18;4.67;;;1.60;;
11222;SDS011;5668;52.012;8.724;2023-04-03T02:20:46;2.90;;;1.40;;
11222;SDS011;5668;52.012;8.724;2023-04-03T02:23:13;4.07;;;1.60;;
11222;SDS011;5668;52.012;8.724;2023-04-03T02:25:42;3.83;;;1.67;;
11222;SDS011;5668;52.012;8.724;2023-04-03T02:28:09;5.40;;;1.80;;
11222;SDS011;5668;52.012;8.724;2023-04-03T02:30:36;3.63;;;1.70;;
11222;SDS011;5668;52.012;8.724;2023-04-03T02:33:04;2.77;;;1.67;;
11222;SDS011;5668;52.012;8.724;2023-04-03T02:35:31;4.13;;;1.73;;
11222;SDS011;5668;52.012;8.724;2023-04-03T02:37:58;4.07;;;1.90;;
11222;SDS011;5668;52.012;8.724;2023-04-03T02:40:25;2.37;;;1.60;;
11222;SDS011;5668;52.012;8.724;2023-04-03T02:42:54;3.97;;;1.63;;
11222;SDS011;5668;52.012;8.724;2023-04-03T02:45:21;3.23;;;1.43;;
11222;SDS011;5668;52.012;8.724;2023-04-03T02:47:48;6.37;;;1.70;;
11222;SDS011;5668;52.012;8.724;2023-04-03T02:50:16;4.50;;;1.73;;
11222;SDS011;5668;52.012;8.724;2023-04-03T02:52:44;2.63;;;1.50;;
11222;SDS011;5668;52.012;8.724;2023-04-03T02:55:13;3.53;;;1.73;;
11222;SDS011;5668;52.012;8.724;2023-04-03T02:57:41;2.20;;;1.43;;
11222;SDS011;5668;52.012;8.724;2023-04-03T03:00:10;3.30;;;1.53;;
11222;SDS011;5668;52.012;8.724;2023-04-03T03:02:38;2.83;;;1.93;;
11222;SDS011;5668;52.012;8.724;2023-04-03T03:05:05;3.00;;;1.60;;
11222;SDS011;5668;52.012;8.724;2023-04-03T03:07:33;4.07;;;1.77;;
11222;SDS011;5668;52.012;8.724;2023-04-03T03:10:00;2.83;;;1.50;;
11222;SDS011;5668;52.012;8.724;2023-04-03T03:12:28;2.90;;;1.63;;
11222;SDS011;5668;52.012;8.724;2023-04-03T03:14:55;4.13;;;1.70;;
11222;SDS011;5668;52.012;8.724;2023-04-03T03:17:24;2.80;;;1.57;;
11222;SDS011;5668;52.012;8.724;2023-04-03T03:19:51;2.47;;;1.50;;
11222;SDS011;5668;52.012;8.724;2023-04-03T03:22:19;2.60;;;1.40;;
11222;SDS011;5668;52.012;8.724;2023-04-03T03:24:46;2.87;;;1.77;;
11222;SDS011;5668;52.012;8.724;2023-04-03T03:27:13;3.17;;;1.53;;
11222;SDS011;5668;52.012;8.724;2023-04-03T03:29:41;3.60;;;1.50;;
11222;SDS011;5668;52.012;8.724;2023-04-03T03:32:08;3.33;;;1.60;;
11222;SDS011;5668;52.012;8.724;2023-04-03T03:34:37;3.20;;;1.53;;
11222;SDS011;5668;52.012;8.724;2023-04-03T03:37:04;4.30;;;1.80;;
11222;SDS011;5668;52.012;8.724;2023-04-03T03:39:32;2.60;;;1.90;;
11222;SDS011;5668;52.012;8.724;2023-04-03T03:41:59;4.17;;;1.80;;
11222;SDS011;5668;52.012;8.724;2023-04-03T03:44:26;2.10;;;1.40;;
11222;SDS011;5668;52.012;8.724;2023-04-03T03:46:54;2.43;;;1.43;;
11222;SDS011;5668;52.012;8.724;2023-04-03T03:49:21;5.10;;;1.57;;
11222;SDS011;5668;52.012;8.724;2023-04-03T03:51:50;3.67;;;1.77;;
11222;SDS011;5668;52.012;8.724;2023-04-03T03:54:17;2.87;;;1.50;;
11222;SDS011;5668;52.012;8.724;2023-04-03T03:56:45;3.20;;;1.53;;
11222;SDS011;5668;52.012;8.724;2023-04-03T03:59:12;3.77;;;1.70;;
11222;SDS011;5668;52.012;8.724;2023-04-03T04:01:39;1.60;;;1.50;;
11222;SDS011;5668;52.012;8.724;2023-04-03T04:04:06;2.13;;;1.53;;
11222;SDS011;5668;52.012;8.724;2023-04-03T04:06:35;3.43;;;1.50;;
11222;SDS011;5668;52.012;8.724;2023-04-03T04:09:04;5.20;;;1.80;;
11222;SDS011;5668;52.012;8.724;2023-04-03T04:11:31;3.70;;;1.73;;
11222;SDS011;5668;52.012;8.724;2023-04-03T04:13:58;2.70;;;1.97;;
11222;SDS011;5668;52.012;8.724;2023-04-03T04:16:25;5.90;;;1.67;;
11222;SDS011;5668;52.012;8.724;2023-04-03T04:18:52;3.23;;;1.93;;
11222;SDS011;5668;52.012;8.724;2023-04-03T04:21:20;3.33;;;1.87;;
11222;SDS011;5668;52.012;8.724;2023-04-03T04:23:47;2.50;;;1.80;;
11222;SDS011;5668;52.012;8.724;2023-04-03T04:26:16;2.93;;;1.63;;
11222;SDS011;5668;52.012;8.724;2023-04-03T04:28:43;2.50;;;1.57;;
11222;SDS011;5668;52.012;8.724;2023-04-03T04:31:10;3.80;;;1.70;;
11222;SDS011;5668;52.012;8.724;2023-04-03T04:33:37;1.83;;;1.70;;
11222;SDS011;5668;52.012;8.724;2023-04-03T04:36:05;4.50;;;1.73;;
11222;SDS011;5668;52.012;8.724;2023-04-03T04:38:32;3.80;;;1.50;;
11222;SDS011;5668;52.012;8.724;2023-04-03T04:41:00;3.40;;;1.50;;
11222;SDS011;5668;52.012;8.724;2023-04-03T04:43:29;2.07;;;1.60;;
11222;SDS011;5668;52.012;8.724;2023-04-03T04:46:00;2.50;;;1.60;;
11222;SDS011;5668;52.012;8.724;2023-04-03T04:48:28;2.80;;;1.70;;
11222;SDS011;5668;52.012;8.724;2023-04-03T04:50:55;2.63;;;1.47;;
11222;SDS011;5668;52.012;8.724;2023-04-03T04:53:22;6.47;;;2.00;;
11222;SDS011;5668;52.012;8.724;2023-04-03T04:55:49;4.13;;;1.80;;
11222;SDS011;5668;52.012;8.724;2023-04-03T04:58:17;3.30;;;2.10;;
11222;SDS011;5668;52.012;8.724;2023-04-03T05:00:46;4.60;;;1.80;;
11222;SDS011;5668;52.012;8.724;2023-04-03T05:03:13;4.67;;;1.80;;
11222;SDS011;5668;52.012;8.724;2023-04-03T05:05:41;6.40;;;1.50;;
11222;SDS011;5668;52.012;8.724;2023-04-03T05:08:09;1.77;;;1.57;;
11222;SDS011;5668;52.012;8.724;2023-04-03T05:10:36;3.90;;;1.67;;
11222;SDS011;5668;52.012;8.724;2023-04-03T05:13:05;2.57;;;1.63;;
11222;SDS011;5668;52.012;8.724;2023-04-03T05:15:33;3.70;;;1.77;;
11222;SDS011;5668;52.012;8.724;2023-04-03T05:18:01;5.27;;;1.87;;
11222;SDS011;5668;52.012;8.724;2023-04-03T05:20:29;2.57;;;1.97;;
11222;SDS011;5668;52.012;8.724;2023-04-03T05:22:57;6.37;;;2.10;;
11222;SDS011;5668;52.012;8.724;2023-04-03T05:25:24;4.43;;;1.97;;
11222;SDS011;5668;52.012;8.724;2023-04-03T05:27:52;3.23;;;1.73;;
11222;SDS011;5668;52.012;8.724;2023-04-03T05:30:19;3.93;;;2.13;;
11222;SDS011;5668;52.012;8.724;2023-04-03T05:32:46;6.83;;;2.57;;
11222;SDS011;5668;52.012;8.724;2023-04-03T05:35:15;5.50;;;2.00;;
11222;SDS011;5668;52.012;8.724;2023-04-03T05:37:42;3.93;;;2.20;;
11222;SDS011;5668;52.012;8.724;2023-04-03T05:40:10;5.07;;;2.37;;
11222;SDS011;5668;52.012;8.724;2023-04-03T05:42:38;4.73;;;2.10;;
11222;SDS011;5668;52.012;8.724;2023-04-03T05:45:06;3.53;;;1.90;;
11222;SDS011;5668;52.012;8.724;2023-04-03T05:47:33;4.93;;;2.67;;
11222;SDS011;5668;52.012;8.724;2023-04-03T05:50:00;5.53;;;1.90;;
11222;SDS011;5668;52.012;8.724;2023-04-03T05:52:30;4.07;;;1.80;;
11222;SDS011;5668;52.012;8.724;2023-04-03T05:55:00;4.57;;;2.13;;
11222;SDS011;5668;52.012;8.724;2023-04-03T05:57:27;5.60;;;2.00;;
11222;SDS011;5668;52.012;8.724;2023-04-03T05:59:54;4.13;;;2.10;;
11222;SDS011;5668;52.012;8.724;2023-04-03T06:02:22;3.40;;;1.70;;
11222;SDS011;5668;52.012;8.724;2023-04-03T06:04:50;2.90;;;1.77;;
11222;SDS011;5668;52.012;8.724;2023-04-03T06:07:18;3.63;;;1.90;;
11222;SDS011;5668;52.012;8.724;2023-04-03T06:09:49;4.40;;;2.10;;
11222;SDS011;5668;52.012;8.724;2023-04-03T06:12:17;5.63;;;2.13;;
11222;SDS011;5668;52.012;8.724;2023-04-03T06:14:44;2.70;;;1.93;;
11222;SDS011;5668;52.012;8.724;2023-04-03T06:17:12;5.57;;;1.87;;
11222;SDS011;5668;52.012;8.724;2023-04-03T06:19:40;5.63;;;1.97;;
11222;SDS011;5668;52.012;8.724;2023-04-03T06:22:07;2.73;;;1.70;;
11222;SDS011;5668;52.012;8.724;2023-04-03T06:24:36;4.57;;;2.00;;
11222;SDS011;5668;52.012;8.724;2023-04-03T06:27:05;3.47;;;2.17;;
11222;SDS011;5668;52.012;8.724;2023-04-03T06:29:33;4.17;;;1.97;;
11222;SDS011;5668;52.012;8.724;2023-04-03T06:32:02;3.10;;;1.87;;
11222;SDS011;5668;52.012;8.724;2023-04-03T06:34:29;3.27;;;1.67;;
11222;SDS011;5668;52.012;8.724;2023-04-03T06:36:57;3.23;;;1.80;;
11222;SDS011;5668;52.012;8.724;2023-04-03T06:39:24;3.67;;;1.80;;
11222;SDS011;5668;52.012;8.724;2023-04-03T06:41:52;3.33;;;1.80;;
11222;SDS011;5668;52.012;8.724;2023-04-03T06:44:20;4.00;;;2.03;;
11222;SDS011;5668;52.012;8.724;2023-04-03T06:46:48;3.87;;;1.90;;
11222;SDS011;5668;52.012;8.724;2023-04-03T06:49:16;3.97;;;1.90;;
11222;SDS011;5668;52.012;8.724;2023-04-03T06:51:44;2.47;;;1.77;;
11222;SDS011;5668;52.012;8.724;2023-04-03T06:54:11;4.40;;;1.87;;
11222;SDS011;5668;52.012;8.724;2023-04-03T06:56:39;3.23;;;1.83;;
11222;SDS011;5668;52.012;8.724;2023-04-03T06:59:06;5.57;;;2.00;;
11222;SDS011;5668;52.012;8.724;2023-04-03T07:01:36;2.23;;;1.50;;
11222;SDS011;5668;52.012;8.724;2023-04-03T07:04:04;3.80;;;1.90;;
11222;SDS011;5668;52.012;8.724;2023-04-03T07:06:31;5.43;;;2.10;;
11222;SDS011;5668;52.012;8.724;2023-04-03T07:08:59;4.70;;;1.80;;
11222;SDS011;5668;52.012;8.724;2023-04-03T07:11:27;3.80;;;1.63;;
11222;SDS011;5668;52.012;8.724;2023-04-03T07:13:55;4.63;;;1.67;;
11222;SDS011;5668;52.012;8.724;2023-04-03T07:16:22;3.00;;;1.40;;
11222;SDS011;5668;52.012;8.724;2023-04-03T07:18:51;3.43;;;1.57;;
11222;SDS011;5668;52.012;8.724;2023-04-03T07:21:18;4.30;;;1.93;;
11222;SDS011;5668;52.012;8.724;2023-04-03T07:23:46;5.03;;;1.70;;
11222;SDS011;5668;52.012;8.724;2023-04-03T07:26:13;2.33;;;1.60;;
11222;SDS011;5668;52.012;8.724;2023-04-03T07:28:40;3.63;;;1.60;;
11222;SDS011;5668;52.012;8.724;2023-04-03T07:31:10;3.03;;;1.93;;
11222;SDS011;5668;52.012;8.724;2023-04-03T07:33:38;3.13;;;1.60;;
11222;SDS011;5668;52.012;8.724;2023-04-03T07:36:07;3.00;;;1.70;;
11222;SDS011;5668;52.012;8.724;2023-04-03T07:38:36;3.50;;;1.50;;
11222;SDS011;5668;52.012;8.724;2023-04-03T07:41:04;1.87;;;1.30;;
11222;SDS011;5668;52.012;8.724;2023-04-03T07:43:31;3.13;;;1.43;;
11222;SDS011;5668;52.012;8.724;2023-04-03T07:45:59;3.37;;;1.57;;
11222;SDS011;5668;52.012;8.724;2023-04-03T07:48:26;4.47;;;1.57;;
11222;SDS011;5668;52.012;8.724;2023-04-03T07:50:53;4.07;;;1.80;;
11222;SDS011;5668;52.012;8.724;2023-04-03T07:53:26;2.57;;;1.50;;
11222;SDS011;5668;52.012;8.724;2023-04-03T07:55:53;2.83;;;1.50;;
11222;SDS011;5668;52.012;8.724;2023-04-03T07:58:22;2.77;;;1.63;;
11222;SDS011;5668;52.012;8.724;2023-04-03T08:00:49;2.13;;;1.30;;
11222;SDS011;5668;52.012;8.724;2023-04-03T08:03:16;3.57;;;1.47;;
11222;SDS011;5668;52.012;8.724;2023-04-03T08:05:44;3.30;;;1.40;;
11222;SDS011;5668;52.012;8.724;2023-04-03T08:08:14;2.40;;;1.40;;
11222;SDS011;5668;52.012;8.724;2023-04-03T08:10:45;3.20;;;1.50;;
11222;SDS011;5668;52.012;8.724;2023-04-03T08:13:15;1.73;;;1.40;;
11222;SDS011;5668;52.012;8.724;2023-04-03T08:15:43;2.60;;;1.47;;
11222;SDS011;5668;52.012;8.724;2023-04-03T08:18:10;2.93;;;1.63;;
11222;SDS011;5668;52.012;8.724;2023-04-03T08:20:37;2.53;;;1.23;;
11222;SDS011;5668;52.012;8.724;2023-04-03T08:23:06;2.43;;;1.40;;
11222;SDS011;5668;52.012;8.724;2023-04-03T08:25:33;3.17;;;1.87;;
11222;SDS011;5668;52.012;8.724;2023-04-03T08:28:05;3.57;;;1.20;;
11222;SDS011;5668;52.012;8.724;2023-04-03T08:30:32;3.40;;;1.47;;
11222;SDS011;5668;52.012;8.724;2023-04-03T08:33:00;3.73;;;1.53;;
11222;SDS011;5668;52.012;8.724;2023-04-03T08:35:27;3.33;;;1.50;;
11222;SDS011;5668;52.012;8.724;2023-04-03T08:37:54;3.97;;;1.27;;
11222;SDS011;5668;52.012;8.724;2023-04-03T08:40:22;2.37;;;1.50;;
11222;SDS011;5668;52.012;8.724;2023-04-03T08:42:56;7.07;;;2.30;;
11222;SDS011;5668;52.012;8.724;2023-04-03T08:45:43;1.87;;;1.50;;
11222;SDS011;5668;52.012;8.724;2023-04-03T08:48:15;3.67;;;1.50;;
11222;SDS011;5668;52.012;8.724;2023-04-03T08:50:47;2.10;;;1.37;;
11222;SDS011;5668;52.012;8.724;2023-04-03T08:53:18;3.53;;;1.30;;
11222;SDS011;5668;52.012;8.724;2023-04-03T08:55:47;3.67;;;1.20;;
11222;SDS011;5668;52.012;8.724;2023-04-03T08:58:18;2.77;;;1.40;;
11222;SDS011;5668;52.012;8.724;2023-04-03T09:00:48;4.07;;;1.30;;
11222;SDS011;5668;52.012;8.724;2023-04-03T09:03:18;2.17;;;1.30;;
11222;SDS011;5668;52.012;8.724;2023-04-03T09:05:47;3.57;;;1.30;;
11222;SDS011;5668;52.012;8.724;2023-04-03T09:08:21;2.40;;;1.10;;
11222;SDS011;5668;52.012;8.724;2023-04-03T09:10:52;1.67;;;1.00;;
11222;SDS011;5668;52.012;8.724;2023-04-03T09:13:35;2.17;;;1.33;;
11222;SDS011;5668;52.012;8.724;2023-04-03T09:16:15;1.50;;;1.20;;
11222;SDS011;5668;52.012;8.724;2023-04-03T09:18:51;3.77;;;1.33;;
11222;SDS011;5668;52.012;8.724;2023-04-03T09:21:24;3.07;;;1.03;;
11222;SDS011;5668;52.012;8.724;2023-04-03T09:23:58;2.30;;;1.27;;
11222;SDS011;5668;52.012;8.724;2023-04-03T09:26:30;2.67;;;1.17;;
11222;SDS011;5668;52.012;8.724;2023-04-03T09:29:05;1.93;;;1.10;;
11222;SDS011;5668;52.012;8.724;2023-04-03T09:31:36;3.37;;;1.20;;
11222;SDS011;5668;52.012;8.724;2023-04-03T09:34:06;2.57;;;1.30;;
11222;SDS011;5668;52.012;8.724;2023-04-03T09:36:48;3.90;;;1.10;;
11222;SDS011;5668;52.012;8.724;2023-04-03T09:39:18;4.07;;;1.50;;
11222;SDS011;5668;52.012;8.724;2023-04-03T09:41:55;4.00;;;1.50;;
11222;SDS011;5668;52.012;8.724;2023-04-03T09:44:26;3.13;;;1.30;;
11222;SDS011;5668;52.012;8.724;2023-04-03T09:46:56;3.80;;;1.70;;
11222;SDS011;5668;52.012;8.724;2023-04-03T09:49:24;4.40;;;1.10;;
11222;SDS011;5668;52.012;8.724;2023-04-03T09:51:51;3.43;;;1.30;;
11222;SDS011;5668;52.012;8.724;2023-04-03T09:54:35;1.20;;;0.80;;
11222;SDS011;5668;52.012;8.724;2023-04-03T09:57:06;1.93;;;1.07;;
11222;SDS011;5668;52.012;8.724;2023-04-03T09:59:39;1.97;;;1.30;;
11222;SDS011;5668;52.012;8.724;2023-04-03T10:02:28;3.57;;;1.27;;
11222;SDS011;5668;52.012;8.724;2023-04-03T10:05:00;1.40;;;0.97;;
11222;SDS011;5668;52.012;8.724;2023-04-03T10:07:30;2.70;;;1.10;;
11222;SDS011;5668;52.012;8.724;2023-04-03T10:10:01;2.53;;;1.20;;
11222;SDS011;5668;52.012;8.724;2023-04-03T10:12:42;1.37;;;1.07;;
11222;SDS011;5668;52.012;8.724;2023-04-03T10:15:12;2.67;;;1.10;;
11222;SDS011;5668;52.012;8.724;2023-04-03T10:17:47;1.70;;;1.20;;
11222;SDS011;5668;52.012;8.724;2023-04-03T10:20:26;2.07;;;1.00;;
11222;SDS011;5668;52.012;8.724;2023-04-03T10:23:01;4.27;;;1.33;;
11222;SDS011;5668;52.012;8.724;2023-04-03T10:25:42;3.03;;;1.00;;
11222;SDS011;5668;52.012;8.724;2023-04-03T10:28:16;2.00;;;1.10;;
11222;SDS011;5668;52.012;8.724;2023-04-03T10:30:54;3.97;;;1.20;;
11222;SDS011;5668;52.012;8.724;2023-04-03T10:33:44;3.10;;;1.27;;
11222;SDS011;5668;52.012;8.724;2023-04-03T10:36:22;2.63;;;1.10;;
11222;SDS011;5668;52.012;8.724;2023-04-03T10:39:01;2.97;;;1.20;;
11222;SDS011;5668;52.012;8.724;2023-04-03T10:41:41;2.23;;;1.23;;
11222;SDS011;5668;52.012;8.724;2023-04-03T10:44:20;2.47;;;1.10;;
11222;SDS011;5668;52.012;8.724;2023-04-03T10:46:58;3.10;;;0.70;;
11222;SDS011;5668;52.012;8.724;2023-04-03T10:49:37;2.50;;;0.93;;
11222;SDS011;5668;52.012;8.724;2023-04-03T10:52:13;1.93;;;0.97;;
11222;SDS011;5668;52.012;8.724;2023-04-03T10:54:49;2.17;;;1.20;;
11222;SDS011;5668;52.012;8.724;2023-04-03T10:57:22;2.47;;;1.10;;
11222;SDS011;5668;52.012;8.724;2023-04-03T10:59:51;1.33;;;0.90;;
11222;SDS011;5668;52.012;8.724;2023-04-03T11:02:25;1.97;;;0.90;;
11222;SDS011;5668;52.012;8.724;2023-04-03T11:04:56;3.63;;;1.23;;
11222;SDS011;5668;52.012;8.724;2023-04-03T11:07:34;2.83;;;1.20;;
11222;SDS011;5668;52.012;8.724;2023-04-03T11:10:09;3.47;;;1.20;;
11222;SDS011;5668;52.012;8.724;2023-04-03T11:12:41;2.27;;;1.20;;
11222;SDS011;5668;52.012;8.724;2023-04-03T11:15:12;3.17;;;1.30;;
11222;SDS011;5668;52.012;8.724;2023-04-03T11:17:43;2.73;;;1.30;;
11222;SDS011;5668;52.012;8.724;2023-04-03T11:20:18;2.50;;;1.17;;
11222;SDS011;5668;52.012;8.724;2023-04-03T11:22:53;2.47;;;1.10;;
11222;SDS011;5668;52.012;8.724;2023-04-03T11:25:26;2.10;;;1.20;;
11222;SDS011;5668;52.012;8.724;2023-04-03T11:27:58;2.30;;;1.00;;
11222;SDS011;5668;52.012;8.724;2023-04-03T11:30:30;3.20;;;1.33;;
11222;SDS011;5668;52.012;8.724;2023-04-03T11:33:17;2.03;;;1.00;;
11222;SDS011;5668;52.012;8.724;2023-04-03T11:35:50;1.37;;;1.00;;
11222;SDS011;5668;52.012;8.724;2023-04-03T11:38:21;2.97;;;1.40;;
11222;SDS011;5668;52.012;8.724;2023-04-03T11:40:51;1.63;;;1.07;;
11222;SDS011;5668;52.012;8.724;2023-04-03T11:43:21;4.73;;;1.33;;
11222;SDS011;5668;52.012;8.724;2023-04-03T11:45:55;2.67;;;1.50;;
11222;SDS011;5668;52.012;8.724;2023-04-03T11:48:43;1.37;;;1.20;;
11222;SDS011;5668;52.012;8.724;2023-04-03T12:03:32;1.90;;;1.20;;
11222;SDS011;5668;52.012;8.724;2023-04-03T12:09:32;1.80;;;0.97;;
11222;SDS011;5668;52.012;8.724;2023-04-03T12:12:34;1.57;;;1.13;;
11222;SDS011;5668;52.012;8.724;2023-04-03T12:15:12;1.70;;;0.93;;
11222;SDS011;5668;52.012;8.724;2023-04-03T12:17:49;1.97;;;1.03;;
11222;SDS011;5668;52.012;8.724;2023-04-03T12:23:24;2.13;;;1.30;;
11222;SDS011;5668;52.012;8.724;2023-04-03T12:25:59;1.80;;;1.03;;
11222;SDS011;5668;52.012;8.724;2023-04-03T12:28:31;1.90;;;1.20;;
11222;SDS011;5668;52.012;8.724;2023-04-03T12:31:05;3.27;;;1.30;;
11222;SDS011;5668;52.012;8.724;2023-04-03T12:33:37;2.13;;;1.20;;
11222;SDS011;5668;52.012;8.724;2023-04-03T12:36:23;4.67;;;1.13;;
11222;SDS011;5668;52.012;8.724;2023-04-03T12:39:07;2.20;;;1.03;;
11222;SDS011;5668;52.012;8.724;2023-04-03T12:41:52;2.27;;;1.33;;
11222;SDS011;5668;52.012;8.724;2023-04-03T12:44:35;1.50;;;1.00;;
11222;SDS011;5668;52.012;8.724;2023-04-03T12:47:17;1.53;;;1.10;;
11222;SDS011;5668;52.012;8.724;2023-04-03T12:49:49;1.63;;;1.17;;
11222;SDS011;5668;52.012;8.724;2023-04-03T12:52:19;1.93;;;1.17;;
11222;SDS011;5668;52.012;8.724;2023-04-03T12:54:58;1.20;;;0.97;;
11222;SDS011;5668;52.012;8.724;2023-04-03T12:57:29;2.10;;;1.10;;
11222;SDS011;5668;52.012;8.724;2023-04-03T12:59:57;2.37;;;1.17;;
11222;SDS011;5668;52.012;8.724;2023-04-03T13:02:29;2.83;;;1.17;;
11222;SDS011;5668;52.012;8.724;2023-04-03T13:04:59;3.13;;;1.23;;
11222;SDS011;5668;52.012;8.724;2023-04-03T13:07:33;3.50;;;1.10;;
11222;SDS011;5668;52.012;8.724;2023-04-03T13:10:13;2.13;;;0.90;;
11222;SDS011;5668;52.012;8.724;2023-04-03T13:12:45;2.40;;;1.20;;
11222;SDS011;5668;52.012;8.724;2023-04-03T13:15:16;5.67;;;1.33;;
11222;SDS011;5668;52.012;8.724;2023-04-03T13:17:45;2.77;;;0.93;;
11222;SDS011;5668;52.012;8.724;2023-04-03T13:20:17;1.57;;;1.03;;
11222;SDS011;5668;52.012;8.724;2023-04-03T13:22:49;2.13;;;1.03;;
11222;SDS011;5668;52.012;8.724;2023-04-03T13:25:22;2.53;;;1.00;;
11222;SDS011;5668;52.012;8.724;2023-04-03T13:27:52;3.03;;;1.10;;
11222;SDS011;5668;52.012;8.724;2023-04-03T13:30:22;2.13;;;1.13;;
11222;SDS011;5668;52.012;8.724;2023-04-03T13:32:53;1.20;;;1.10;;
11222;SDS011;5668;52.012;8.724;2023-04-03T13:35:29;2.17;;;1.13;;
11222;SDS011;5668;52.012;8.724;2023-04-03T13:38:01;2.57;;;1.20;;
11222;SDS011;5668;52.012;8.724;2023-04-03T13:40:32;2.30;;;1.00;;
11222;SDS011;5668;52.012;8.724;2023-04-03T13:43:04;2.00;;;1.20;;
11222;SDS011;5668;52.012;8.724;2023-04-03T13:45:52;1.03;;;0.90;;
11222;SDS011;5668;52.012;8.724;2023-04-03T13:48:25;2.60;;;1.07;;
11222;SDS011;5668;52.012;8.724;2023-04-03T13:51:01;8.50;;;4.33;;
11222;SDS011;5668;52.012;8.724;2023-04-03T13:53:31;10.23;;;9.23;;
11222;SDS011;5668;52.012;8.724;2023-04-03T13:56:06;13.90;;;12.60;;
11222;SDS011;5668;52.012;8.724;2023-04-03T13:58:36;5.07;;;4.60;;
11222;SDS011;5668;52.012;8.724;2023-04-03T14:01:11;4.03;;;2.20;;
11222;SDS011;5668;52.012;8.724;2023-04-03T14:03:44;4.20;;;3.10;;
11222;SDS011;5668;52.012;8.724;2023-04-03T14:06:14;2.73;;;1.73;;
11222;SDS011;5668;52.012;8.724;2023-04-03T14:08:42;4.17;;;3.67;;
11222;SDS011;5668;52.012;8.724;2023-04-03T14:11:16;11.43;;;9.43;;
11222;SDS011;5668;52.012;8.724;2023-04-03T14:13:47;7.63;;;4.63;;
11222;SDS011;5668;52.012;8.724;2023-04-03T14:16:16;2.87;;;2.30;;
11222;SDS011;5668;52.012;8.724;2023-04-03T14:18:46;8.63;;;6.03;;
11222;SDS011;5668;52.012;8.724;2023-04-03T14:21:16;13.83;;;11.93;;
11222;SDS011;5668;52.012;8.724;2023-04-03T14:23:44;3.67;;;2.33;;
11222;SDS011;5668;52.012;8.724;2023-04-03T14:26:12;3.83;;;2.90;;
11222;SDS011;5668;52.012;8.724;2023-04-03T14:28:42;2.80;;;2.00;;
11222;SDS011;5668;52.012;8.724;2023-04-03T14:31:10;7.10;;;5.23;;
11222;SDS011;5668;52.012;8.724;2023-04-03T14:33:38;4.87;;;4.47;;
11222;SDS011;5668;52.012;8.724;2023-04-03T14:36:10;28.37;;;5.30;;
11222;SDS011;5668;52.012;8.724;2023-04-03T14:38:40;5.87;;;1.90;;
11222;SDS011;5668;52.012;8.724;2023-04-03T14:41:07;4.30;;;1.97;;
11222;SDS011;5668;52.012;8.724;2023-04-03T14:43:38;7.17;;;6.47;;
11222;SDS011;5668;52.012;8.724;2023-04-03T14:46:09;3.27;;;2.80;;
11222;SDS011;5668;52.012;8.724;2023-04-03T14:48:39;3.23;;;1.90;;
11222;SDS011;5668;52.012;8.724;2023-04-03T14:51:07;2.87;;;2.00;;
11222;SDS011;5668;52.012;8.724;2023-04-03T14:53:36;3.13;;;2.50;;
11222;SDS011;5668;52.012;8.724;2023-04-03T14:56:05;6.10;;;3.80;;
11222;SDS011;5668;52.012;8.724;2023-04-03T14:58:41;2.60;;;2.00;;
11222;SDS011;5668;52.012;8.724;2023-04-03T15:01:09;6.87;;;3.57;;
11222;SDS011;5668;52.012;8.724;2023-04-03T15:03:36;5.07;;;4.57;;
11222;SDS011;5668;52.012;8.724;2023-04-03T15:06:04;10.27;;;9.37;;
11222;SDS011;5668;52.012;8.724;2023-04-03T15:08:31;21.07;;;19.27;;
11222;SDS011;5668;52.012;8.724;2023-04-03T15:10:59;18.40;;;16.80;;
11222;SDS011;5668;52.012;8.724;2023-04-03T15:13:26;26.03;;;23.57;;
11222;SDS011;5668;52.012;8.724;2023-04-03T15:15:54;20.37;;;18.53;;
11222;SDS011;5668;52.012;8.724;2023-04-03T15:18:22;4.27;;;3.87;;
11222;SDS011;5668;52.012;8.724;2023-04-03T15:20:52;3.30;;;3.00;;
11222;SDS011;5668;52.012;8.724;2023-04-03T15:23:20;9.17;;;8.37;;
11222;SDS011;5668;52.012;8.724;2023-04-03T15:25:51;26.40;;;24.00;;
11222;SDS011;5668;52.012;8.724;2023-04-03T15:28:22;51.33;;;46.23;;
11222;SDS011;5668;52.012;8.724;2023-04-03T15:30:54;80.17;;;72.30;;
11222;SDS011;5668;52.012;8.724;2023-04-03T15:33:21;50.50;;;45.60;;
11222;SDS011;5668;52.012;8.724;2023-04-03T15:35:49;57.47;;;51.70;;
11222;SDS011;5668;52.012;8.724;2023-04-03T15:38:16;23.40;;;21.30;;